Time;durP1;ratioP1;P1;durP2;ratioP2;P2;SDS_P1;SDS_P2;PMS_P1;PMS_P2;Temp;Humidity;BMP_temperature;BMP_pressure;BME280_temperature;BME280_humidity;BME280_pressure;Samples;Min_cycle;Max_cycle;Signal;HPM_P1;HPM_P2
2023/08/17 00:00:50;;;;;;;2.43;0.63;;;;;;;;;;5051548;28;20190;-81
2023/08/17 00:03:15;;;;;;;3.37;1.20;;;;;;;;;;5051566;28;20822;-82
2023/08/17 00:05:41;;;;;;;4.67;1.60;;;;;;;;;;5051696;28;20502;-82
2023/08/17 00:08:07;;;;;;;5.50;1.03;;;;;;;;;;5051623;28;20181;-82
2023/08/17 00:10:33;;;;;;;5.87;1.10;;;;;;;;;;5051366;28;20439;-84
2023/08/17 00:13:00;;;;;;;3.07;0.70;;;;;;;;;;5051377;28;20224;-82
2023/08/17 00:15:29;;;;;;;3.57;1.07;;;;;;;;;;5050351;28;20881;-83
2023/08/17 00:17:55;;;;;;;4.93;1.63;;;;;;;;;;5051432;28;20474;-84
2023/08/17 00:20:20;;;;;;;3.93;1.17;;;;;;;;;;5053056;28;20431;-84
2023/08/17 00:22:47;;;;;;;3.20;0.83;;;;;;;;;;5052733;28;20412;-82
2023/08/17 00:25:13;;;;;;;2.60;1.00;;;;;;;;;;5055527;28;20180;-82
2023/08/17 00:27:38;;;;;;;8.73;1.70;;;;;;;;;;5055483;28;20423;-82
2023/08/17 00:30:05;;;;;;;4.30;1.30;;;;;;;;;;5054917;28;20498;-82
2023/08/17 00:32:30;;;;;;;4.67;1.40;;;;;;;;;;5055749;28;20247;-82
2023/08/17 00:34:56;;;;;;;5.50;1.33;;;;;;;;;;5058635;28;21114;-82
2023/08/17 00:37:22;;;;;;;4.43;1.10;;;;;;;;;;5075321;28;20261;-82
2023/08/17 00:39:48;;;;;;;3.30;0.77;;;;;;;;;;5075768;28;20218;-82
2023/08/17 00:42:14;;;;;;;6.87;1.10;;;;;;;;;;5075746;28;20266;-82
2023/08/17 00:44:40;;;;;;;3.40;1.37;;;;;;;;;;5075173;28;20174;-83
2023/08/17 00:47:06;;;;;;;5.30;1.20;;;;;;;;;;5075639;28;20639;-83
2023/08/17 00:49:32;;;;;;;5.60;1.23;;;;;;;;;;5075638;28;20175;-83
2023/08/17 00:51:58;;;;;;;4.43;1.23;;;;;;;;;;5075528;28;20433;-84
2023/08/17 00:54:25;;;;;;;9.60;1.53;;;;;;;;;;5075298;28;20417;-83
2023/08/17 00:56:51;;;;;;;4.13;1.00;;;;;;;;;;5075355;28;20525;-84
2023/08/17 00:59:17;;;;;;;5.33;1.30;;;;;;;;;;5073487;28;20456;-82
2023/08/17 01:01:43;;;;;;;2.93;1.00;;;;;;;;;;5075172;28;20453;-82
2023/08/17 01:04:09;;;;;;;3.73;1.33;;;;;;;;;;5075462;28;20491;-85
2023/08/17 01:06:35;;;;;;;4.27;1.20;;;;;;;;;;5075267;28;20413;-84
2023/08/17 01:09:01;;;;;;;5.20;1.67;;;;;;;;;;5075137;28;20769;-84
2023/08/17 01:11:35;;;;;;;4.17;1.20;;;;;;;;;;5074887;28;20410;-84
2023/08/17 01:14:06;;;;;;;4.60;0.73;;;;;;;;;;5073563;28;20427;-83
2023/08/17 01:16:33;;;;;;;2.80;0.87;;;;;;;;;;5074960;28;20462;-84
2023/08/17 01:19:01;;;;;;;4.57;0.93;;;;;;;;;;5075118;28;20788;-83
2023/08/17 01:21:30;;;;;;;3.87;0.77;;;;;;;;;;5074928;28;20499;-82
2023/08/17 01:24:02;;;;;;;4.23;0.80;;;;;;;;;;5074939;28;20414;-82
2023/08/17 01:26:28;;;;;;;4.90;1.17;;;;;;;;;;5055445;28;20425;-81
2023/08/17 01:28:54;;;;;;;5.90;0.80;;;;;;;;;;5054349;28;20407;-81
2023/08/17 01:31:21;;;;;;;4.07;1.03;;;;;;;;;;5054461;28;20179;-81
2023/08/17 01:33:50;;;;;;;5.43;1.13;;;;;;;;;;5054836;28;20176;-81
2023/08/17 01:36:34;;;;;;;2.90;0.90;;;;;;;;;;5054680;28;20470;-81
2023/08/17 01:39:00;;;;;;;5.37;1.00;;;;;;;;;;5048346;28;20439;-81
2023/08/17 01:41:26;;;;;;;2.53;0.60;;;;;;;;;;5047030;28;20434;-81
2023/08/17 01:43:53;;;;;;;5.90;0.80;;;;;;;;;;5034316;28;20439;-81
2023/08/17 01:46:19;;;;;;;3.37;0.83;;;;;;;;;;5034698;28;20467;-81
2023/08/17 01:48:45;;;;;;;2.43;0.63;;;;;;;;;;5033392;28;20413;-82
2023/08/17 01:51:12;;;;;;;6.67;1.40;;;;;;;;;;5047017;28;20406;-82
2023/08/17 01:53:38;;;;;;;4.90;1.67;;;;;;;;;;5034570;28;20413;-81
2023/08/17 01:56:04;;;;;;;2.93;0.43;;;;;;;;;;5034302;28;20402;-81
2023/08/17 01:58:30;;;;;;;2.93;0.93;;;;;;;;;;5034169;28;20438;-81
2023/08/17 02:00:56;;;;;;;5.33;0.47;;;;;;;;;;5034309;28;20411;-82
2023/08/17 02:03:22;;;;;;;4.63;0.87;;;;;;;;;;5033987;28;20280;-82
2023/08/17 02:05:47;;;;;;;3.83;0.70;;;;;;;;;;5034257;28;20510;-81
2023/08/17 02:08:13;;;;;;;3.90;0.97;;;;;;;;;;5034979;28;20177;-82
2023/08/17 02:10:39;;;;;;;3.53;0.40;;;;;;;;;;5043921;28;20249;-82
2023/08/17 02:13:05;;;;;;;3.80;1.07;;;;;;;;;;5042632;28;20552;-82
2023/08/17 02:15:31;;;;;;;1.33;0.43;;;;;;;;;;5034068;28;20409;-82
2023/08/17 02:17:57;;;;;;;4.03;1.10;;;;;;;;;;5033842;28;20213;-81
2023/08/17 02:20:23;;;;;;;3.50;0.70;;;;;;;;;;5034089;28;20177;-81
2023/08/17 02:22:49;;;;;;;2.97;0.73;;;;;;;;;;5034001;28;20874;-83
2023/08/17 02:25:15;;;;;;;2.93;0.70;;;;;;;;;;5033988;28;20176;-83
2023/08/17 02:27:41;;;;;;;3.17;0.60;;;;;;;;;;5033734;28;20195;-83
2023/08/17 02:30:07;;;;;;;2.90;0.57;;;;;;;;;;5033776;28;20491;-83
2023/08/17 02:32:33;;;;;;;2.83;0.50;;;;;;;;;;5033603;28;20584;-82
2023/08/17 02:34:59;;;;;;;2.80;0.60;;;;;;;;;;5033794;28;20485;-82
2023/08/17 02:37:25;;;;;;;2.40;0.77;;;;;;;;;;5033578;28;20815;-83
2023/08/17 02:39:51;;;;;;;2.43;0.90;;;;;;;;;;5033736;28;20408;-83
2023/08/17 02:42:17;;;;;;;6.27;0.90;;;;;;;;;;5033089;28;20177;-82
2023/08/17 02:44:43;;;;;;;4.07;0.90;;;;;;;;;;5032000;28;20184;-82
2023/08/17 02:47:09;;;;;;;4.73;0.40;;;;;;;;;;5033554;28;20419;-83
2023/08/17 02:49:35;;;;;;;2.73;0.60;;;;;;;;;;5044848;28;20189;-82
2023/08/17 02:52:04;;;;;;;4.13;0.43;;;;;;;;;;5033555;28;20172;-84
2023/08/17 02:54:31;;;;;;;1.07;0.40;;;;;;;;;;5032268;28;20450;-83
2023/08/17 02:56:59;;;;;;;2.37;0.30;;;;;;;;;;5033447;28;20478;-83
2023/08/17 02:59:25;;;;;;;3.17;0.87;;;;;;;;;;5032748;28;20412;-83
2023/08/17 03:01:51;;;;;;;3.20;1.00;;;;;;;;;;5033073;28;20519;-83
2023/08/17 03:04:17;;;;;;;5.23;0.37;;;;;;;;;;5033394;28;20294;-82
2023/08/17 03:06:43;;;;;;;5.40;2.10;;;;;;;;;;5033224;28;20616;-82
2023/08/17 03:09:12;;;;;;;2.50;0.37;;;;;;;;;;5047466;28;20322;-84
2023/08/17 03:11:38;;;;;;;1.73;0.40;;;;;;;;;;5053034;28;20174;-83
2023/08/17 03:14:03;;;;;;;1.23;0.47;;;;;;;;;;5052640;28;20416;-82
2023/08/17 03:16:30;;;;;;;5.03;0.40;;;;;;;;;;5052897;28;20196;-82
2023/08/17 03:18:56;;;;;;;2.60;0.50;;;;;;;;;;5052968;28;20180;-82
2023/08/17 03:21:22;;;;;;;4.07;0.57;;;;;;;;;;5052775;28;20475;-84
2023/08/17 03:23:48;;;;;;;2.07;0.30;;;;;;;;;;5052758;28;20406;-81
2023/08/17 03:26:14;;;;;;;4.50;0.40;;;;;;;;;;5052881;28;20418;-81
2023/08/17 03:28:40;;;;;;;5.63;0.43;;;;;;;;;;5052298;28;20475;-82
2023/08/17 03:31:09;;;;;;;4.37;0.40;;;;;;;;;;5068894;28;20949;-83
2023/08/17 03:33:36;;;;;;;1.90;0.40;;;;;;;;;;5072466;28;20238;-82
2023/08/17 03:36:02;;;;;;;2.37;0.80;;;;;;;;;;5071204;28;20454;-83
2023/08/17 03:38:28;;;;;;;1.70;0.30;;;;;;;;;;5072578;28;20464;-86
2023/08/17 03:40:54;;;;;;;4.20;0.53;;;;;;;;;;5071283;28;20422;-83
2023/08/17 03:43:20;;;;;;;4.00;1.00;;;;;;;;;;5072137;28;20198;-85
2023/08/17 03:45:46;;;;;;;3.47;1.00;;;;;;;;;;5072731;28;20929;-82
2023/08/17 03:48:12;;;;;;;4.00;0.80;;;;;;;;;;5072412;28;20409;-81
2023/08/17 03:50:38;;;;;;;3.20;0.70;;;;;;;;;;5072508;28;20481;-82
2023/08/17 03:53:04;;;;;;;1.63;0.60;;;;;;;;;;5072427;28;20873;-82
2023/08/17 03:55:30;;;;;;;2.57;0.87;;;;;;;;;;5071023;28;20446;-83
2023/08/17 03:57:56;;;;;;;2.90;0.40;;;;;;;;;;5070611;28;20478;-82
2023/08/17 04:00:22;;;;;;;5.43;0.93;;;;;;;;;;5067835;28;20429;-83
2023/08/17 04:02:48;;;;;;;6.80;0.97;;;;;;;;;;5043657;28;20478;-84
2023/08/17 04:05:14;;;;;;;2.43;0.50;;;;;;;;;;5050198;28;20168;-83
2023/08/17 04:07:40;;;;;;;4.37;0.70;;;;;;;;;;5051930;28;20173;-83
2023/08/17 04:10:07;;;;;;;2.10;0.60;;;;;;;;;;5051629;28;20843;-84
2023/08/17 04:12:33;;;;;;;2.30;0.83;;;;;;;;;;5051386;28;20419;-84
2023/08/17 04:14:59;;;;;;;2.60;0.60;;;;;;;;;;5051668;28;20463;-83
2023/08/17 04:17:24;;;;;;;4.03;0.80;;;;;;;;;;5051951;28;20472;-84
2023/08/17 04:19:50;;;;;;;2.47;0.40;;;;;;;;;;5051617;28;20180;-85
2023/08/17 04:22:16;;;;;;;5.50;1.03;;;;;;;;;;5050566;28;20926;-82
2023/08/17 04:24:42;;;;;;;2.77;0.70;;;;;;;;;;5049312;28;20176;-84
2023/08/17 04:27:08;;;;;;;4.80;0.90;;;;;;;;;;5050775;28;20426;-82
2023/08/17 04:29:35;;;;;;;4.33;0.97;;;;;;;;;;5050581;28;20178;-82
2023/08/17 04:32:01;;;;;;;6.87;0.83;;;;;;;;;;5050888;28;20926;-82
2023/08/17 04:34:27;;;;;;;3.60;0.50;;;;;;;;;;5051421;28;20404;-84
2023/08/17 04:36:53;;;;;;;6.23;0.90;;;;;;;;;;5051957;28;20826;-81
2023/08/17 04:39:19;;;;;;;4.83;0.50;;;;;;;;;;5051952;28;20268;-81
2023/08/17 04:41:44;;;;;;;4.10;0.40;;;;;;;;;;5051917;28;20407;-81
2023/08/17 04:44:10;;;;;;;4.07;0.50;;;;;;;;;;5051603;28;20438;-81
2023/08/17 04:46:36;;;;;;;4.50;1.07;;;;;;;;;;5051924;28;20226;-82
2023/08/17 04:49:02;;;;;;;2.60;0.60;;;;;;;;;;5051994;28;20410;-83
2023/08/17 04:51:28;;;;;;;1.70;0.70;;;;;;;;;;5050646;28;20179;-81
2023/08/17 04:53:54;;;;;;;5.23;1.17;;;;;;;;;;5051949;28;20910;-81
2023/08/17 04:56:20;;;;;;;3.53;0.63;;;;;;;;;;5051718;28;20179;-82
2023/08/17 04:58:46;;;;;;;3.40;0.93;;;;;;;;;;5050125;28;20480;-80
2023/08/17 05:01:12;;;;;;;4.40;0.97;;;;;;;;;;5050476;28;20416;-81
2023/08/17 05:03:38;;;;;;;2.50;0.83;;;;;;;;;;5050218;28;20220;-81
2023/08/17 05:06:04;;;;;;;3.03;1.30;;;;;;;;;;5053976;28;20234;-82
2023/08/17 05:08:30;;;;;;;2.93;0.60;;;;;;;;;;5055847;28;20771;-81
2023/08/17 05:10:56;;;;;;;4.20;1.07;;;;;;;;;;5055655;28;21045;-82
2023/08/17 05:13:22;;;;;;;1.80;0.53;;;;;;;;;;5055353;28;20421;-81
2023/08/17 05:15:48;;;;;;;2.97;1.10;;;;;;;;;;5055608;28;20172;-81
2023/08/17 05:18:14;;;;;;;3.47;0.73;;;;;;;;;;5055459;28;20724;-82
2023/08/17 05:20:43;;;;;;;2.67;0.93;;;;;;;;;;5055615;28;20164;-85
2023/08/17 05:23:09;;;;;;;2.60;1.00;;;;;;;;;;5054211;28;20427;-82
2023/08/17 05:25:35;;;;;;;2.73;0.87;;;;;;;;;;5055420;28;20513;-83
2023/08/17 05:28:01;;;;;;;7.77;1.40;;;;;;;;;;5055004;28;20469;-84
2023/08/17 05:30:27;;;;;;;2.80;1.03;;;;;;;;;;5055024;28;20249;-88
2023/08/17 05:32:53;;;;;;;3.60;1.23;;;;;;;;;;5053311;28;20175;-82
2023/08/17 05:35:19;;;;;;;3.53;1.07;;;;;;;;;;5052447;28;20513;-82
2023/08/17 05:37:45;;;;;;;3.77;1.57;;;;;;;;;;5054759;28;20734;-83
2023/08/17 05:40:11;;;;;;;7.13;1.70;;;;;;;;;;5051841;28;20417;-84
2023/08/17 05:42:37;;;;;;;4.90;1.30;;;;;;;;;;5054324;28;20403;-86
2023/08/17 05:45:03;;;;;;;4.13;1.27;;;;;;;;;;5053481;28;20444;-87
2023/08/17 05:47:29;;;;;;;3.73;1.40;;;;;;;;;;5052186;28;20420;-87
2023/08/17 05:49:55;;;;;;;2.80;0.93;;;;;;;;;;5051890;28;20406;-87
2023/08/17 05:52:21;;;;;;;5.00;1.37;;;;;;;;;;5052036;28;20540;-86
2023/08/17 05:54:47;;;;;;;4.27;1.53;;;;;;;;;;5050686;28;20425;-84
2023/08/17 05:57:13;;;;;;;5.73;1.57;;;;;;;;;;5053961;28;20499;-84
2023/08/17 05:59:39;;;;;;;5.73;1.70;;;;;;;;;;5054500;28;20403;-85
2023/08/17 06:02:05;;;;;;;6.93;2.07;;;;;;;;;;5054128;28;20533;-85
2023/08/17 06:04:31;;;;;;;4.97;1.50;;;;;;;;;;5054257;28;20439;-85
2023/08/17 06:06:57;;;;;;;4.43;2.20;;;;;;;;;;5052817;28;20184;-84
2023/08/17 06:09:23;;;;;;;3.97;2.53;;;;;;;;;;5052875;28;20171;-84
2023/08/17 06:11:48;;;;;;;4.60;1.73;;;;;;;;;;5054002;28;20171;-84
2023/08/17 06:14:14;;;;;;;3.60;1.13;;;;;;;;;;5051813;28;20468;-85
2023/08/17 06:16:40;;;;;;;3.97;1.57;;;;;;;;;;5048592;28;20196;-84
2023/08/17 06:19:06;;;;;;;6.03;2.80;;;;;;;;;;5053956;28;20673;-83
2023/08/17 06:21:32;;;;;;;5.73;1.37;;;;;;;;;;5053954;28;20183;-83
2023/08/17 06:23:58;;;;;;;4.35;1.83;;;;;;;;;;5052316;28;20420;-84
2023/08/17 06:26:24;;;;;;;3.30;1.83;;;;;;;;;;5053170;28;20214;-84
2023/08/17 06:28:50;;;;;;;6.27;2.20;;;;;;;;;;5052776;28;20443;-84
2023/08/17 06:31:16;;;;;;;4.17;1.43;;;;;;;;;;5053807;28;20530;-85
2023/08/17 06:33:42;;;;;;;3.30;1.93;;;;;;;;;;5054644;28;20408;-84
2023/08/17 06:36:08;;;;;;;6.40;2.23;;;;;;;;;;5055403;28;20433;-82
2023/08/17 06:38:34;;;;;;;2.60;1.33;;;;;;;;;;5039446;28;20215;-82
2023/08/17 06:40:59;;;;;;;2.37;1.13;;;;;;;;;;5032900;28;20175;-82
2023/08/17 06:43:25;;;;;;;5.50;1.03;;;;;;;;;;5033874;28;20183;-82
2023/08/17 06:45:51;;;;;;;2.60;1.03;;;;;;;;;;5032650;28;20704;-82
2023/08/17 06:48:17;;;;;;;4.30;0.60;;;;;;;;;;5034114;28;20180;-82
2023/08/17 06:50:46;;;;;;;4.33;1.07;;;;;;;;;;5034057;28;20193;-82
2023/08/17 06:53:12;;;;;;;6.10;1.03;;;;;;;;;;5033921;28;20414;-82
2023/08/17 06:55:38;;;;;;;2.50;1.07;;;;;;;;;;5034043;28;20917;-82
2023/08/17 06:58:04;;;;;;;2.70;1.13;;;;;;;;;;5033469;28;20222;-81
2023/08/17 07:00:30;;;;;;;2.47;1.00;;;;;;;;;;5033926;28;20401;-82
2023/08/17 07:02:56;;;;;;;3.03;0.70;;;;;;;;;;5033651;28;20472;-82
2023/08/17 07:05:22;;;;;;;2.27;0.67;;;;;;;;;;5037531;28;20656;-82
2023/08/17 07:07:48;;;;;;;1.70;0.90;;;;;;;;;;5040697;28;20177;-82
2023/08/17 07:10:14;;;;;;;2.40;0.50;;;;;;;;;;5042928;28;20419;-81
2023/08/17 07:12:40;;;;;;;2.67;0.90;;;;;;;;;;5038181;28;21030;-82
2023/08/17 07:15:06;;;;;;;1.90;0.93;;;;;;;;;;5041124;28;20768;-82
2023/08/17 07:17:34;;;;;;;4.43;1.43;;;;;;;;;;5033422;28;20535;-82
2023/08/17 07:20:00;;;;;;;2.87;0.80;;;;;;;;;;5033481;28;20922;-81
2023/08/17 07:22:26;;;;;;;2.60;0.90;;;;;;;;;;5033455;28;20505;-82
2023/08/17 07:24:52;;;;;;;1.83;0.83;;;;;;;;;;5033412;28;20985;-81
2023/08/17 07:27:18;;;;;;;2.10;0.83;;;;;;;;;;5032832;28;20410;-85
2023/08/17 07:29:44;;;;;;;2.90;0.80;;;;;;;;;;5032054;28;20181;-85
2023/08/17 07:32:09;;;;;;;3.27;0.70;;;;;;;;;;5032082;28;20423;-85
2023/08/17 07:34:36;;;;;;;3.10;1.00;;;;;;;;;;5031976;28;20775;-83
2023/08/17 07:37:04;;;;;;;1.47;0.73;;;;;;;;;;5053889;28;20456;-86
2023/08/17 07:39:30;;;;;;;3.03;0.97;;;;;;;;;;5072911;28;20500;-82
2023/08/17 07:41:56;;;;;;;3.00;1.10;;;;;;;;;;5071336;28;20407;-86
2023/08/17 07:44:22;;;;;;;1.63;0.50;;;;;;;;;;5072754;28;20426;-83
2023/08/17 07:46:48;;;;;;;1.83;0.97;;;;;;;;;;5071469;28;20621;-84
2023/08/17 07:49:14;;;;;;;1.30;1.00;;;;;;;;;;5072661;28;20174;-85
2023/08/17 07:51:40;;;;;;;2.73;0.87;;;;;;;;;;5072834;28;20176;-85
2023/08/17 07:54:06;;;;;;;1.93;0.73;;;;;;;;;;5071488;28;20805;-82
2023/08/17 07:56:31;;;;;;;1.93;0.80;;;;;;;;;;5072607;28;20417;-83
2023/08/17 07:58:57;;;;;;;1.87;0.87;;;;;;;;;;5072384;28;20512;-83
2023/08/17 08:01:24;;;;;;;1.57;0.80;;;;;;;;;;5072852;28;20178;-83
2023/08/17 08:03:50;;;;;;;4.90;1.50;;;;;;;;;;5072503;28;20217;-83
2023/08/17 08:06:16;;;;;;;1.80;0.70;;;;;;;;;;5072509;28;20401;-84
2023/08/17 08:08:42;;;;;;;2.80;0.80;;;;;;;;;;5071245;28;20826;-82
2023/08/17 08:11:08;;;;;;;3.67;0.97;;;;;;;;;;5072529;28;20429;-85
2023/08/17 08:13:34;;;;;;;2.43;0.57;;;;;;;;;;5071713;28;20174;-85
2023/08/17 08:16:00;;;;;;;1.40;0.70;;;;;;;;;;5072490;28;20421;-84
2023/08/17 08:18:26;;;;;;;2.57;0.57;;;;;;;;;;5071020;28;20210;-83
2023/08/17 08:20:51;;;;;;;1.27;0.40;;;;;;;;;;5072212;28;20179;-85
2023/08/17 08:23:17;;;;;;;4.00;0.87;;;;;;;;;;5072483;28;20774;-83
2023/08/17 08:25:49;;;;;;;2.17;0.60;;;;;;;;;;5072195;28;20185;-83
2023/08/17 08:28:15;;;;;;;2.67;0.60;;;;;;;;;;5071943;28;20551;-83
2023/08/17 08:30:41;;;;;;;2.03;0.77;;;;;;;;;;5072329;28;20491;-85
2023/08/17 08:33:07;;;;;;;2.80;0.73;;;;;;;;;;5072280;28;20412;-82
2023/08/17 08:35:33;;;;;;;1.90;0.60;;;;;;;;;;5072158;28;20659;-85
2023/08/17 08:37:59;;;;;;;1.30;0.77;;;;;;;;;;5071928;28;20567;-85
2023/08/17 08:40:27;;;;;;;0.97;0.60;;;;;;;;;;5074168;28;20168;-81
2023/08/17 08:42:53;;;;;;;2.00;0.53;;;;;;;;;;5075630;28;20917;-83
2023/08/17 08:45:20;;;;;;;1.63;0.43;;;;;;;;;;5075756;28;20505;-81
2023/08/17 08:47:47;;;;;;;2.63;0.73;;;;;;;;;;5076331;28;20655;-81
2023/08/17 08:50:17;;;;;;;1.50;0.30;;;;;;;;;;5075855;28;20406;-82
2023/08/17 08:52:45;;;;;;;2.33;0.70;;;;;;;;;;5075890;28;20389;-81
2023/08/17 08:55:22;;;;;;;1.87;0.30;;;;;;;;;;5074682;28;20409;-86
2023/08/17 08:57:49;;;;;;;1.50;0.37;;;;;;;;;;5075428;28;20518;-82
2023/08/17 09:00:15;;;;;;;1.30;0.60;;;;;;;;;;5075741;28;20417;-83
2023/08/17 09:02:43;;;;;;;1.07;0.50;;;;;;;;;;5075469;28;20498;-82
2023/08/17 09:05:09;;;;;;;3.17;0.23;;;;;;;;;;5074091;28;20418;-84
2023/08/17 09:07:35;;;;;;;2.80;0.67;;;;;;;;;;5075634;28;20429;-83
2023/08/17 09:10:03;;;;;;;2.33;0.37;;;;;;;;;;5063466;28;21056;-82
2023/08/17 09:12:29;;;;;;;1.10;0.40;;;;;;;;;;5048686;28;20430;-84
2023/08/17 09:14:55;;;;;;;1.90;0.70;;;;;;;;;;5055563;28;20412;-82
2023/08/17 09:17:34;;;;;;;1.53;0.37;;;;;;;;;;5055332;28;20456;-83
2023/08/17 09:20:00;;;;;;;1.37;0.50;;;;;;;;;;5055518;28;20527;-90
2023/08/17 09:22:36;;;;;;;1.20;0.77;;;;;;;;;;5055430;28;20416;-83
2023/08/17 09:25:02;;;;;;;1.50;0.40;;;;;;;;;;5053987;28;20433;-82
2023/08/17 09:27:28;;;;;;;2.40;0.90;;;;;;;;;;5054621;28;20410;-86
2023/08/17 09:30:01;;;;;;;1.80;0.40;;;;;;;;;;5055095;28;20419;-83
2023/08/17 09:32:31;;;;;;;2.20;1.10;;;;;;;;;;5055159;28;20188;-83
2023/08/17 09:34:57;;;;;;;4.27;0.60;;;;;;;;;;5054910;28;20408;-83
2023/08/17 09:37:23;;;;;;;1.80;0.57;;;;;;;;;;5054384;28;20913;-84
2023/08/17 09:39:49;;;;;;;2.40;0.83;;;;;;;;;;5036996;28;20428;-84
2023/08/17 09:42:17;;;;;;;3.63;0.90;;;;;;;;;;5034856;28;20512;-85
2023/08/17 09:44:44;;;;;;;3.93;0.97;;;;;;;;;;5035006;28;20181;-84
2023/08/17 09:47:11;;;;;;;1.23;0.53;;;;;;;;;;5035604;28;20920;-83
2023/08/17 09:49:36;;;;;;;1.87;0.50;;;;;;;;;;5054954;28;20459;-87
2023/08/17 09:52:02;;;;;;;3.37;0.67;;;;;;;;;;5050258;28;20435;-86
2023/08/17 09:54:30;;;;;;;1.03;0.53;;;;;;;;;;5053185;28;20171;-88
2023/08/17 09:56:56;;;;;;;2.27;0.77;;;;;;;;;;5041613;28;20209;-87
2023/08/17 09:59:23;;;;;;;2.67;0.57;;;;;;;;;;5045506;28;20835;-84
2023/08/17 10:01:50;;;;;;;2.47;0.90;;;;;;;;;;5041244;28;20426;-83
2023/08/17 10:04:22;;;;;;;1.47;0.50;;;;;;;;;;5053405;28;20422;-85
2023/08/17 10:06:49;;;;;;;1.20;0.80;;;;;;;;;;5072649;28;20417;-82
2023/08/17 10:09:16;;;;;;;1.83;0.40;;;;;;;;;;5073670;28;20413;-83
2023/08/17 10:11:43;;;;;;;1.13;0.50;;;;;;;;;;5073279;28;20931;-86
2023/08/17 10:14:17;;;;;;;4.97;1.10;;;;;;;;;;5072202;28;20427;-84
2023/08/17 10:16:46;;;;;;;1.23;0.30;;;;;;;;;;5072156;28;20469;-83
2023/08/17 10:19:18;;;;;;;1.67;0.50;;;;;;;;;;5073507;28;20424;-86
2023/08/17 10:21:46;;;;;;;1.30;0.40;;;;;;;;;;5072356;28;20401;-85
2023/08/17 10:24:13;;;;;;;1.00;0.50;;;;;;;;;;5073980;28;20448;-89
2023/08/17 10:26:39;;;;;;;1.83;0.50;;;;;;;;;;5037608;28;20437;-83
2023/08/17 10:29:05;;;;;;;2.60;0.50;;;;;;;;;;5041472;28;20789;-88
2023/08/17 10:31:34;;;;;;;2.60;1.00;;;;;;;;;;5049783;28;20433;-84
2023/08/17 10:34:01;;;;;;;2.10;0.40;;;;;;;;;;5052468;28;20893;-84
2023/08/17 10:36:27;;;;;;;1.10;0.70;;;;;;;;;;5049049;28;20783;-83
2023/08/17 10:39:12;;;;;;;1.00;0.60;;;;;;;;;;5050645;28;20550;-86
2023/08/17 10:41:46;;;;;;;2.47;0.87;;;;;;;;;;5047746;28;20425;-85
2023/08/17 10:44:12;;;;;;;3.00;0.97;;;;;;;;;;5051443;28;20415;-87
2023/08/17 10:46:40;;;;;;;2.87;0.77;;;;;;;;;;5053150;28;20856;-85
2023/08/17 10:49:06;;;;;;;1.40;0.60;;;;;;;;;;5052674;28;20408;-86
2023/08/17 10:51:33;;;;;;;1.37;0.43;;;;;;;;;;5052700;28;20440;-85
2023/08/17 10:53:59;;;;;;;1.00;0.40;;;;;;;;;;5053112;28;20762;-83
2023/08/17 10:56:27;;;;;;;2.00;0.60;;;;;;;;;;5051175;28;20421;-89
2023/08/17 10:58:53;;;;;;;1.97;0.50;;;;;;;;;;5051516;28;20842;-83
2023/08/17 11:01:36;;;;;;;1.20;0.40;;;;;;;;;;5048107;28;20530;-85
2023/08/17 11:04:18;;;;;;;1.73;0.77;;;;;;;;;;5057803;28;20582;-85
2023/08/17 11:06:46;;;;;;;1.03;0.40;;;;;;;;;;5052235;28;20909;-84
2023/08/17 11:09:12;;;;;;;1.03;0.57;;;;;;;;;;5051035;28;21064;-83
2023/08/17 11:11:38;;;;;;;1.37;0.63;;;;;;;;;;5051938;28;20421;-83
2023/08/17 11:14:04;;;;;;;4.47;0.50;;;;;;;;;;5052211;28;20765;-83
2023/08/17 11:16:30;;;;;;;2.10;0.40;;;;;;;;;;5050945;28;20976;-85
2023/08/17 11:18:58;;;;;;;1.80;0.60;;;;;;;;;;5050805;28;20564;-86
2023/08/17 11:21:24;;;;;;;1.80;0.63;;;;;;;;;;5052134;28;20410;-84
2023/08/17 11:23:50;;;;;;;2.67;0.40;;;;;;;;;;5052135;28;20445;-81
2023/08/17 11:26:17;;;;;;;1.33;0.50;;;;;;;;;;5051623;28;20922;-82
2023/08/17 11:28:44;;;;;;;1.47;0.63;;;;;;;;;;5051739;28;20483;-82
2023/08/17 11:31:11;;;;;;;1.17;0.57;;;;;;;;;;5051947;28;20414;-82
2023/08/17 11:33:37;;;;;;;2.13;0.67;;;;;;;;;;5051851;28;20403;-83
2023/08/17 11:36:05;;;;;;;3.77;0.83;;;;;;;;;;5051983;28;20510;-83
2023/08/17 11:38:33;;;;;;;1.13;0.40;;;;;;;;;;5051584;28;20540;-84
2023/08/17 11:40:59;;;;;;;1.63;0.60;;;;;;;;;;5051345;28;20415;-85
2023/08/17 11:43:25;;;;;;;1.63;0.60;;;;;;;;;;5051331;28;20413;-85
2023/08/17 11:45:52;;;;;;;2.00;0.97;;;;;;;;;;5051756;28;20911;-83
2023/08/17 11:48:21;;;;;;;1.83;0.60;;;;;;;;;;5051177;28;20416;-85
2023/08/17 11:50:47;;;;;;;3.23;1.10;;;;;;;;;;5051546;28;20901;-82
2023/08/17 11:53:13;;;;;;;3.17;1.30;;;;;;;;;;5050467;28;20426;-85
2023/08/17 11:55:39;;;;;;;4.13;0.97;;;;;;;;;;5051617;28;20176;-85
2023/08/17 11:58:05;;;;;;;2.40;1.13;;;;;;;;;;5050761;28;20497;-85
2023/08/17 12:00:35;;;;;;;1.50;1.40;;;;;;;;;;5069139;28;20679;-85
2023/08/17 12:03:03;;;;;;;3.43;0.97;;;;;;;;;;5071469;28;20480;-84
2023/08/17 12:05:31;;;;;;;2.47;0.73;;;;;;;;;;5069999;28;20449;-85
2023/08/17 12:07:57;;;;;;;4.30;0.87;;;;;;;;;;5071794;28;20442;-83
2023/08/17 12:10:23;;;;;;;1.80;0.70;;;;;;;;;;5069529;28;20409;-85
2023/08/17 12:12:49;;;;;;;3.03;1.57;;;;;;;;;;5071329;28;20408;-84
2023/08/17 12:15:18;;;;;;;4.27;1.30;;;;;;;;;;5072397;28;20907;-84
2023/08/17 12:17:46;;;;;;;3.17;0.70;;;;;;;;;;5075562;28;21010;-83
2023/08/17 12:20:16;;;;;;;1.10;0.60;;;;;;;;;;5075090;28;20820;-84
2023/08/17 12:22:42;;;;;;;2.40;1.30;;;;;;;;;;5073749;28;20446;-84
2023/08/17 12:25:08;;;;;;;2.57;0.90;;;;;;;;;;5087349;28;20482;-83
2023/08/17 12:27:34;;;;;;;1.40;0.93;;;;;;;;;;5074325;28;20469;-84
2023/08/17 12:30:00;;;;;;;3.73;0.83;;;;;;;;;;5073213;28;20887;-84
2023/08/17 12:32:26;;;;;;;1.70;0.70;;;;;;;;;;5074082;28;20176;-83
2023/08/17 12:34:52;;;;;;;3.60;1.03;;;;;;;;;;5074195;28;20501;-83
2023/08/17 12:37:21;;;;;;;3.80;0.73;;;;;;;;;;5074663;28;20475;-87
2023/08/17 12:39:47;;;;;;;2.37;0.90;;;;;;;;;;5075270;28;20168;-85
2023/08/17 12:42:14;;;;;;;2.37;1.37;;;;;;;;;;5074885;28;20415;-85
2023/08/17 12:44:40;;;;;;;1.30;0.60;;;;;;;;;;5075021;28;20405;-84
2023/08/17 12:47:09;;;;;;;3.07;1.23;;;;;;;;;;5074962;28;20463;-86
2023/08/17 12:49:34;;;;;;;2.37;0.80;;;;;;;;;;5075076;28;20425;-88
2023/08/17 12:52:00;;;;;;;2.60;1.17;;;;;;;;;;5073546;28;20414;-85
2023/08/17 12:54:26;;;;;;;3.20;1.40;;;;;;;;;;5073578;28;20169;-85
2023/08/17 12:56:52;;;;;;;1.77;1.00;;;;;;;;;;5074418;28;20250;-85
2023/08/17 12:59:18;;;;;;;1.90;0.93;;;;;;;;;;5074905;28;20558;-83
2023/08/17 13:01:44;;;;;;;2.37;1.30;;;;;;;;;;5073223;28;20259;-84
2023/08/17 13:04:10;;;;;;;2.50;0.77;;;;;;;;;;5073397;28;20176;-85
2023/08/17 13:06:36;;;;;;;2.13;0.57;;;;;;;;;;5075393;28;20590;-83
2023/08/17 13:09:02;;;;;;;1.13;0.57;;;;;;;;;;5075531;28;20216;-81
2023/08/17 13:11:30;;;;;;;3.27;1.27;;;;;;;;;;5075218;28;20252;-81
2023/08/17 13:13:56;;;;;;;2.20;0.60;;;;;;;;;;5074321;28;20490;-81
2023/08/17 13:16:22;;;;;;;2.60;1.30;;;;;;;;;;5075224;28;20466;-80
2023/08/17 13:18:48;;;;;;;1.90;1.20;;;;;;;;;;5075240;28;20204;-81
2023/08/17 13:21:15;;;;;;;1.50;0.87;;;;;;;;;;5075157;28;20404;-81
2023/08/17 13:23:41;;;;;;;3.17;1.27;;;;;;;;;;5074623;28;20580;-81
2023/08/17 13:26:07;;;;;;;3.33;1.60;;;;;;;;;;5074009;28;20468;-81
2023/08/17 13:28:33;;;;;;;2.37;0.90;;;;;;;;;;5073828;28;20414;-81
2023/08/17 13:30:59;;;;;;;3.57;1.17;;;;;;;;;;5075158;28;20423;-81
2023/08/17 13:33:25;;;;;;;2.13;0.93;;;;;;;;;;5074663;28;20198;-81
2023/08/17 13:35:51;;;;;;;3.57;1.23;;;;;;;;;;5073763;28;20459;-81
2023/08/17 13:38:17;;;;;;;2.33;0.50;;;;;;;;;;5074438;28;20776;-81
2023/08/17 13:40:52;;;;;;;3.00;1.00;;;;;;;;;;5074898;28;20167;-81
2023/08/17 13:43:18;;;;;;;4.57;1.27;;;;;;;;;;5074946;28;20178;-81
2023/08/17 13:45:44;;;;;;;1.53;0.97;;;;;;;;;;5074929;28;20824;-81
2023/08/17 13:48:10;;;;;;;1.20;0.67;;;;;;;;;;5073728;28;20537;-81
2023/08/17 13:50:38;;;;;;;2.23;0.47;;;;;;;;;;5074262;28;20426;-81
2023/08/17 13:53:04;;;;;;;1.43;0.30;;;;;;;;;;5054936;28;20185;-81
2023/08/17 13:55:30;;;;;;;3.33;0.77;;;;;;;;;;5064179;28;20516;-80
2023/08/17 13:57:59;;;;;;;2.13;0.50;;;;;;;;;;5074277;28;20743;-81
2023/08/17 14:00:26;;;;;;;1.00;0.70;;;;;;;;;;5060224;28;20962;-81
2023/08/17 14:02:52;;;;;;;2.73;0.60;;;;;;;;;;5053830;28;20498;-80
2023/08/17 14:05:18;;;;;;;2.07;0.50;;;;;;;;;;5052671;28;20462;-79
2023/08/17 14:07:44;;;;;;;3.60;0.60;;;;;;;;;;5053811;28;20459;-80
2023/08/17 14:10:10;;;;;;;3.10;0.87;;;;;;;;;;5053672;28;20906;-80
2023/08/17 14:12:36;;;;;;;1.30;0.60;;;;;;;;;;5052416;28;20916;-80
2023/08/17 14:15:02;;;;;;;1.50;0.40;;;;;;;;;;5057001;28;20442;-80
2023/08/17 14:17:28;;;;;;;1.90;0.70;;;;;;;;;;5053796;28;20514;-79
2023/08/17 14:19:55;;;;;;;4.83;1.30;;;;;;;;;;5053625;28;20457;-80
2023/08/17 14:22:21;;;;;;;3.93;1.30;;;;;;;;;;5053476;28;20170;-81
2023/08/17 14:24:47;;;;;;;3.00;0.80;;;;;;;;;;5053552;28;20570;-80
2023/08/17 14:27:13;;;;;;;2.30;0.40;;;;;;;;;;5053131;28;20170;-80
2023/08/17 14:30:01;;;;;;;1.93;0.57;;;;;;;;;;5053709;28;20227;-80
2023/08/17 14:32:27;;;;;;;2.10;0.40;;;;;;;;;;5054026;28;20630;-80
2023/08/17 14:34:53;;;;;;;2.00;0.43;;;;;;;;;;5053333;28;21008;-80
2023/08/17 14:37:19;;;;;;;1.70;0.83;;;;;;;;;;5047695;28;20458;-81
2023/08/17 14:39:46;;;;;;;3.70;0.93;;;;;;;;;;5042029;28;20425;-80